Time;durP1;ratioP1;P1;durP2;ratioP2;P2;SDS_P1;SDS_P2;PMS_P1;PMS_P2;Temp;Humidity;BMP_temperature;BMP_pressure;BME280_temperature;BME280_humidity;BME280_pressure;Samples;Min_cycle;Max_cycle;Signal;HPM_P1;HPM_P2
2022/01/19 00:02:20;;;;;;;61.50;52.88;;;16.80;57.30;;;;;;4977631;27;94633;-70
2022/01/19 00:04:46;;;;;;;62.53;53.97;;;16.80;57.30;;;;;;4988512;27;95562;-70
2022/01/19 00:07:11;;;;;;;59.92;52.42;;;16.80;57.40;;;;;;4996828;27;94717;-70
2022/01/19 00:09:37;;;;;;;61.13;53.38;;;16.80;57.60;;;;;;5002053;27;97619;-70
2022/01/19 00:12:03;;;;;;;60.08;52.55;;;16.70;57.40;;;;;;5001714;27;95963;-70
2022/01/19 00:14:30;;;;;;;61.95;53.08;;;16.70;57.50;;;;;;4999859;27;95131;-70
2022/01/19 00:16:56;;;;;;;60.13;53.28;;;16.70;57.50;;;;;;5015829;27;95785;-70
2022/01/19 00:19:21;;;;;;;59.55;52.35;;;16.60;57.50;;;;;;5007153;27;98377;-69
2022/01/19 00:21:47;;;;;;;61.58;52.70;;;16.60;57.50;;;;;;5003133;27;95234;-70
2022/01/19 00:24:12;;;;;;;59.92;53.28;;;16.60;57.50;;;;;;5014760;27;95362;-70
2022/01/19 00:26:38;;;;;;;59.05;52.55;;;16.60;57.40;;;;;;5012356;27;94630;-70
2022/01/19 00:29:04;;;;;;;60.35;52.90;;;16.60;57.30;;;;;;5005448;27;102267;-70
2022/01/19 00:31:29;;;;;;;59.55;52.70;;;16.60;57.50;;;;;;5005602;27;95262;-70
2022/01/19 00:33:55;;;;;;;58.47;52.00;;;16.60;57.50;;;;;;5012003;27;96278;-70
2022/01/19 00:36:20;;;;;;;60.50;52.30;;;16.50;58.00;;;;;;5005353;27;98524;-70
2022/01/19 00:38:46;;;;;;;58.20;51.75;;;16.50;57.70;;;;;;4996670;27;95146;-70
2022/01/19 00:41:11;;;;;;;59.00;51.63;;;16.50;57.70;;;;;;5011684;27;94639;-70
2022/01/19 00:43:38;;;;;;;59.35;52.40;;;16.40;57.60;;;;;;5009743;27;95433;-70
2022/01/19 00:46:03;;;;;;;59.63;52.42;;;16.40;57.50;;;;;;5005055;27;96418;-70
2022/01/19 00:48:29;;;;;;;58.70;52.00;;;16.40;57.40;;;;;;5004961;27;95685;-70
2022/01/19 00:50:56;;;;;;;58.83;52.10;;;16.40;57.40;;;;;;5003314;27;95524;-70
2022/01/19 00:53:22;;;;;;;58.63;51.90;;;16.40;57.50;;;;;;5012624;27;96562;-70
2022/01/19 00:55:48;;;;;;;58.05;51.63;;;16.30;57.30;;;;;;5011640;27;95065;-70
2022/01/19 00:58:14;;;;;;;59.63;52.33;;;16.30;57.50;;;;;;5008838;27;96804;-70
2022/01/19 01:00:40;;;;;;;58.05;51.60;;;16.30;57.40;;;;;;4995545;27;96919;-70
2022/01/19 01:03:06;;;;;;;58.42;51.42;;;16.30;57.40;;;;;;4995142;27;95504;-70
2022/01/19 01:05:33;;;;;;;58.33;51.25;;;16.30;57.60;;;;;;5009763;27;96411;-70
2022/01/19 01:07:59;;;;;;;57.88;51.55;;;16.30;57.50;;;;;;5007779;27;96119;-70
2022/01/19 01:10:25;;;;;;;57.90;51.58;;;16.30;57.50;;;;;;4996645;27;95441;-70
2022/01/19 01:12:53;;;;;;;58.50;51.08;;;16.30;57.50;;;;;;5012513;27;96038;-70
2022/01/19 01:20:38;;;;;;;57.90;51.03;;;16.20;57.50;;;;;;4997981;27;94923;-70
2022/01/19 01:23:05;;;;;;;57.35;51.10;;;16.20;57.50;;;;;;4997952;27;97195;-70
2022/01/19 01:25:31;;;;;;;57.20;51.00;;;16.10;57.50;;;;;;5004572;27;96507;-71
2022/01/19 01:27:57;;;;;;;58.25;51.13;;;16.10;57.50;;;;;;4999784;27;95441;-70
2022/01/19 01:30:23;;;;;;;57.38;51.15;;;16.10;57.50;;;;;;4985496;27;96604;-70
2022/01/19 01:32:48;;;;;;;56.80;50.60;;;16.10;57.70;;;;;;5010879;27;100344;-70
2022/01/19 01:35:14;;;;;;;58.30;50.92;;;16.10;57.50;;;;;;4994278;27;95628;-70
2022/01/19 01:37:40;;;;;;;57.22;50.95;;;16.10;57.50;;;;;;5004587;27;95749;-70
2022/01/19 01:40:08;;;;;;;56.70;50.50;;;16.10;57.50;;;;;;5004718;27;96229;-70
2022/01/19 01:42:35;;;;;;;56.25;50.15;;;16.10;57.40;;;;;;5008657;27;95734;-71
2022/01/19 01:45:01;;;;;;;56.85;50.65;;;16.20;57.40;;;;;;5013192;27;95518;-70
2022/01/19 01:47:28;;;;;;;56.72;50.53;;;16.30;57.10;;;;;;5012138;27;97147;-70
2022/01/19 01:55:16;;;;;;;56.13;50.03;;;16.60;56.30;;;;;;4958677;27;96196;-70
2022/01/19 01:57:42;;;;;;;49.68;44.36;;;16.60;56.10;;;;;;281132;27;10117529;-70
2022/01/19 02:00:11;;;;;;;57.28;50.90;;;16.70;55.90;;;;;;5002639;27;95060;-71
2022/01/19 02:02:37;;;;;;;55.72;49.78;;;16.80;55.80;;;;;;5003354;27;95321;-70
2022/01/19 02:05:03;;;;;;;57.55;51.22;;;16.80;55.60;;;;;;5006967;27;94658;-70
2022/01/19 02:07:40;;;;;;;56.20;50.05;;;16.90;55.50;;;;;;5006490;27;95899;-70
2022/01/19 02:10:14;;;;;;;56.65;49.92;;;16.90;55.30;;;;;;4994438;27;95204;-70
2022/01/19 02:23:57;;;;;;;56.13;49.95;;;16.90;55.10;;;;;;4909527;28;95583;-70
2022/01/19 02:26:33;;;;;;;56.63;50.42;;;16.90;55.20;;;;;;4916276;28;96007;-70
2022/01/19 02:29:06;;;;;;;56.88;50.67;;;16.90;55.10;;;;;;4961437;27;95820;-70
2022/01/19 02:42:41;;;;;;;56.20;50.17;;;16.80;55.20;;;;;;5004149;27;94846;-70
2022/01/19 02:50:19;;;;;;;55.20;49.30;;;16.80;55.30;;;;;;4990725;27;96296;-70
2022/01/19 02:52:44;;;;;;;55.42;49.42;;;16.70;55.20;;;;;;4986218;27;95194;-70
2022/01/19 02:55:10;;;;;;;55.50;49.50;;;16.70;55.30;;;;;;5004506;27;95512;-70
2022/01/19 02:57:37;;;;;;;55.80;49.70;;;16.70;55.40;;;;;;5006965;27;95995;-70
2022/01/19 03:08:43;;;;;;;56.38;50.30;;;16.60;55.60;;;;;;4935145;28;96844;-70
2022/01/19 03:09:17;;;;;;;55.58;49.63;;;16.50;55.70;;;;;;4988059;27;96805;-70
2022/01/19 03:11:42;;;;;;;55.58;49.60;;;16.60;55.70;;;;;;5000531;27;96087;-70
2022/01/19 03:14:08;;;;;;;55.10;49.20;;;16.60;55.60;;;;;;5007693;27;96723;-70
2022/01/19 03:16:34;;;;;;;55.63;49.58;;;16.50;55.50;;;;;;5004053;27;96664;-70
2022/01/19 03:19:00;;;;;;;56.03;49.92;;;16.50;55.70;;;;;;5005654;27;96836;-70
2022/01/19 03:21:26;;;;;;;55.83;49.80;;;16.50;55.80;;;;;;5002511;27;94706;-70
2022/01/19 03:23:51;;;;;;;56.28;50.03;;;16.40;55.80;;;;;;5010413;27;94555;-70
2022/01/19 03:26:17;;;;;;;55.38;49.28;;;16.40;55.80;;;;;;5005381;27;95722;-70
2022/01/19 03:28:43;;;;;;;55.35;49.47;;;16.40;55.90;;;;;;5007892;27;95165;-70
2022/01/19 03:31:08;;;;;;;55.78;49.78;;;16.40;55.90;;;;;;5011793;27;96140;-70
2022/01/19 03:33:34;;;;;;;55.70;49.72;;;16.40;55.90;;;;;;4998587;27;95349;-70
2022/01/19 03:36:00;;;;;;;55.25;49.33;;;16.40;55.90;;;;;;5005372;27;95199;-70
2022/01/19 03:38:26;;;;;;;55.58;49.47;;;16.40;55.90;;;;;;4995691;27;95653;-70
2022/01/19 03:40:52;;;;;;;55.35;49.35;;;16.30;55.90;;;;;;4999774;27;94868;-70
2022/01/19 03:43:17;;;;;;;54.88;48.97;;;16.30;55.90;;;;;;5004745;27;96696;-70
2022/01/19 03:45:51;;;;;;;55.28;49.28;;;16.30;55.90;;;;;;5008479;27;95302;-70
2022/01/19 03:51:18;;;;;;;55.60;49.63;;;16.30;55.90;;;;;;4913592;28;96007;-70
2022/01/19 03:53:44;;;;;;;55.20;49.22;;;16.30;56.10;;;;;;4974036;27;96419;-70
2022/01/19 03:56:10;;;;;;;55.50;49.45;;;16.30;56.20;;;;;;5010175;27;96775;-70
2022/01/19 03:58:36;;;;;;;55.17;49.10;;;16.30;56.00;;;;;;4999194;27;95810;-70
2022/01/19 04:01:03;;;;;;;55.55;49.55;;;16.20;56.00;;;;;;5002606;27;95339;-70
2022/01/19 04:08:42;;;;;;;55.03;49.03;;;16.20;56.00;;;;;;4999412;27;95589;-70
2022/01/19 04:11:08;;;;;;;55.80;49.75;;;16.20;56.30;;;;;;5001407;27;95882;-70
2022/01/19 04:13:54;;;;;;;54.47;48.63;;;16.20;56.00;;;;;;4998534;27;95056;-70
2022/01/19 04:16:19;;;;;;;45.97;41.10;;;16.10;56.10;;;;;;267492;28;10108851;-70
2022/01/19 04:18:44;;;;;;;54.53;48.72;;;16.10;56.00;;;;;;5007286;27;94637;-70
2022/01/19 04:21:10;;;;;;;54.83;48.97;;;16.10;56.20;;;;;;5007203;27;101292;-70
2022/01/19 04:23:36;;;;;;;54.58;48.67;;;16.10;56.20;;;;;;5006917;27;95736;-71
2022/01/19 04:26:03;;;;;;;55.28;49.35;;;16.10;56.20;;;;;;5006230;27;95075;-70
2022/01/19 04:28:29;;;;;;;54.83;49.03;;;16.10;56.20;;;;;;5004231;27;95231;-70
2022/01/19 04:30:54;;;;;;;55.20;49.20;;;16.10;56.20;;;;;;5006670;27;96133;-70
2022/01/19 04:33:24;;;;;;;55.10;49.10;;;16.10;56.20;;;;;;5000450;27;95087;-70
2022/01/19 04:35:52;;;;;;;54.72;48.90;;;16.10;56.10;;;;;;4994932;27;96354;-70
2022/01/19 05:05:17;;;;;;;54.90;49.00;;;16.70;55.20;;;;;;4986004;27;95439;-70
2022/01/19 05:15:46;;;;;;;55.22;49.22;;;17.00;54.70;;;;;;5004981;27;95228;-70
2022/01/19 05:18:12;;;;;;;54.70;48.80;;;17.10;54.60;;;;;;5003180;27;99634;-70
2022/01/19 05:20:38;;;;;;;54.72;48.72;;;17.20;54.40;;;;;;5000815;27;95605;-70
2022/01/19 05:23:04;;;;;;;55.10;49.13;;;17.30;54.20;;;;;;4999585;27;96133;-70
2022/01/19 05:25:29;;;;;;;54.70;48.65;;;17.40;54.10;;;;;;5003137;27;96262;-70
2022/01/19 05:27:55;;;;;;;55.03;49.00;;;17.40;53.90;;;;;;5000957;27;95654;-70
2022/01/19 05:30:20;;;;;;;54.90;48.90;;;17.50;54.00;;;;;;4990878;27;95785;-71
2022/01/19 05:32:47;;;;;;;55.33;49.17;;;17.50;54.30;;;;;;4990558;27;96155;-70
2022/01/19 05:35:13;;;;;;;54.88;48.90;;;17.60;53.90;;;;;;4996638;27;94771;-70
2022/01/19 05:37:39;;;;;;;54.95;49.00;;;17.60;54.00;;;;;;4999944;27;96802;-70
2022/01/19 05:40:09;;;;;;;55.08;49.13;;;17.70;53.50;;;;;;4987104;27;95992;-70
2022/01/19 05:42:35;;;;;;;55.10;48.78;;;17.60;53.60;;;;;;4996586;27;96836;-70
2022/01/19 05:45:01;;;;;;;54.42;48.55;;;17.70;54.10;;;;;;5001400;27;95313;-69
2022/01/19 05:47:26;;;;;;;55.08;48.80;;;17.70;53.50;;;;;;4999216;27;97836;-68
2022/01/19 05:49:52;;;;;;;54.42;48.53;;;17.70;53.50;;;;;;5003494;27;95364;-69
2022/01/19 05:52:19;;;;;;;54.50;48.50;;;17.70;53.50;;;;;;4986273;27;101964;-69
2022/01/19 05:54:45;;;;;;;55.10;48.78;;;17.80;53.40;;;;;;4997747;27;95077;-70
2022/01/19 05:57:12;;;;;;;54.30;48.40;;;17.80;53.40;;;;;;4995809;27;96318;-70
2022/01/19 05:59:38;;;;;;;54.58;48.67;;;17.80;53.50;;;;;;4992765;27;96652;-69
2022/01/19 06:02:04;;;;;;;54.72;48.80;;;17.80;53.30;;;;;;5000905;27;97099;-69
2022/01/19 06:04:30;;;;;;;54.65;48.70;;;17.80;53.20;;;;;;4996763;27;96899;-70
2022/01/19 06:06:56;;;;;;;54.72;48.78;;;17.80;53.30;;;;;;4987141;27;96654;-69
2022/01/19 06:12:07;;;;;;;54.67;48.78;;;17.80;53.30;;;;;;4998126;27;96200;-69
2022/01/19 06:14:33;;;;;;;54.65;48.15;;;17.70;53.20;;;;;;4993213;27;95250;-69
2022/01/19 06:16:59;;;;;;;54.25;48.35;;;17.70;53.30;;;;;;4996848;27;95437;-70
2022/01/19 06:19:25;;;;;;;54.55;48.65;;;17.70;53.20;;;;;;5003837;27;95870;-69
2022/01/19 06:21:51;;;;;;;54.70;48.78;;;17.60;53.50;;;;;;5005188;27;95749;-69
2022/01/19 06:24:17;;;;;;;54.15;48.20;;;17.60;53.60;;;;;;4995595;27;95810;-69
2022/01/19 06:26:43;;;;;;;54.80;48.72;;;17.60;53.50;;;;;;4995365;27;96726;-69
2022/01/19 06:29:08;;;;;;;54.63;48.67;;;17.60;53.80;;;;;;4998541;27;99537;-69
2022/01/19 06:31:34;;;;;;;54.38;48.45;;;17.60;53.80;;;;;;4986563;27;99498;-70
2022/01/19 06:34:00;;;;;;;54.00;48.15;;;17.60;53.80;;;;;;4999361;27;95976;-69
2022/01/19 06:36:25;;;;;;;54.80;48.85;;;17.50;53.70;;;;;;4989188;27;96506;-68
2022/01/19 06:38:51;;;;;;;54.50;48.53;;;17.50;53.80;;;;;;4994391;27;96582;-69
2022/01/19 06:41:17;;;;;;;54.70;48.72;;;17.50;53.80;;;;;;4993799;27;95791;-69
2022/01/19 06:43:43;;;;;;;54.67;48.70;;;17.50;53.80;;;;;;4998026;27;94443;-69
2022/01/19 06:46:08;;;;;;;54.28;48.38;;;17.50;53.90;;;;;;5001549;27;96061;-69
2022/01/19 06:48:34;;;;;;;54.67;48.67;;;17.40;53.90;;;;;;4982071;27;96678;-69
2022/01/19 06:50:59;;;;;;;53.95;48.05;;;17.40;53.90;;;;;;5006303;27;95911;-69
2022/01/19 06:53:26;;;;;;;54.50;48.38;;;17.30;53.80;;;;;;4983093;27;95692;-69
2022/01/19 06:55:54;;;;;;;55.42;49.00;;;17.20;54.10;;;;;;4999694;27;96504;-69
2022/01/19 06:58:20;;;;;;;54.83;48.17;;;17.10;54.30;;;;;;4993544;27;96692;-69
2022/01/19 07:00:46;;;;;;;55.70;48.38;;;17.10;54.30;;;;;;4998945;27;96518;-69
2022/01/19 07:03:11;;;;;;;54.28;48.38;;;17.00;55.10;;;;;;5005001;27;94810;-69
2022/01/19 07:05:39;;;;;;;54.67;48.47;;;17.00;54.70;;;;;;5005924;27;96249;-69
2022/01/19 07:08:04;;;;;;;54.65;48.65;;;16.90;54.70;;;;;;4992482;27;108394;-69
2022/01/19 07:10:31;;;;;;;55.17;48.55;;;17.00;54.90;;;;;;4986009;27;96742;-69
2022/01/19 07:13:08;;;;;;;54.45;48.55;;;17.00;54.70;;;;;;3910706;27;10082643;-70
2022/01/19 07:15:36;;;;;;;54.78;48.78;;;17.00;54.40;;;;;;1687492;27;10099039;-71
2022/01/19 07:18:03;;;;;;;57.50;49.22;;;17.10;54.60;;;;;;4972531;27;97052;-73
2022/01/19 07:20:28;;;;;;;56.58;49.60;;;17.10;55.10;;;;;;4987097;27;96761;-73
2022/01/19 07:22:56;;;;;;;59.30;49.67;;;17.10;55.60;;;;;;4985964;27;95181;-73
2022/01/19 07:25:22;;;;;;;62.30;49.53;;;17.30;55.90;;;;;;5005140;27;97254;-74
2022/01/19 07:27:48;;;;;;;57.58;49.60;;;17.40;55.80;;;;;;4995341;27;96488;-73
2022/01/19 07:30:14;;;;;;;57.70;50.20;;;17.40;55.20;;;;;;4967900;27;95704;-73
2022/01/19 07:32:39;;;;;;;58.22;49.67;;;17.50;55.60;;;;;;4996161;27;95055;-73
2022/01/19 07:35:06;;;;;;;58.90;49.70;;;17.60;55.40;;;;;;5002201;27;95233;-72
2022/01/19 07:37:33;;;;;;;61.65;49.47;;;17.60;54.80;;;;;;5000140;27;101076;-72
2022/01/19 07:39:59;;;;;;;64.55;49.55;;;17.60;54.70;;;;;;4970641;27;96401;-73
2022/01/19 07:42:25;;;;;;;58.40;50.30;;;17.60;54.80;;;;;;4989428;27;95037;-72
2022/01/19 07:44:53;;;;;;;59.97;49.80;;;17.60;54.70;;;;;;4985235;27;96346;-72
2022/01/19 07:47:19;;;;;;;59.63;50.03;;;17.70;54.50;;;;;;4988907;27;96096;-72
2022/01/19 07:49:44;;;;;;;60.25;49.70;;;17.70;54.50;;;;;;4988163;27;96370;-72
2022/01/19 07:52:10;;;;;;;59.50;49.92;;;17.80;54.10;;;;;;5001568;27;95297;-71
2022/01/19 07:54:36;;;;;;;57.53;49.78;;;17.80;53.60;;;;;;4996845;27;95768;-71
2022/01/19 07:57:02;;;;;;;61.03;49.95;;;17.80;53.50;;;;;;5000873;27;97097;-71
2022/01/19 07:59:28;;;;;;;59.05;49.90;;;17.80;52.90;;;;;;4994222;27;95059;-71
2022/01/19 08:01:54;;;;;;;58.20;49.67;;;17.80;53.00;;;;;;5001376;27;95881;-72
2022/01/19 08:04:19;;;;;;;61.55;49.75;;;17.90;53.00;;;;;;5004144;27;96841;-73
2022/01/19 08:06:52;;;;;;;64.05;49.63;;;17.90;53.10;;;;;;4996186;27;99098;-72
2022/01/19 08:09:18;;;;;;;59.75;49.67;;;18.00;53.00;;;;;;4997668;27;94885;-71
2022/01/19 08:11:43;;;;;;;57.40;49.72;;;18.00;53.10;;;;;;4989779;27;95069;-74
2022/01/19 08:14:09;;;;;;;58.60;50.38;;;18.00;53.30;;;;;;4994643;27;98458;-72
2022/01/19 08:16:35;;;;;;;58.08;50.10;;;18.00;53.20;;;;;;4986664;27;96821;-72
2022/01/19 08:19:00;;;;;;;58.65;50.15;;;18.00;53.10;;;;;;5014234;27;95139;-72
2022/01/19 08:21:26;;;;;;;58.70;50.40;;;18.00;53.40;;;;;;5002455;27;98212;-73
2022/01/19 08:23:51;;;;;;;58.30;50.30;;;18.10;53.20;;;;;;4996950;27;95950;-72
2022/01/19 08:26:17;;;;;;;57.33;49.95;;;18.10;53.30;;;;;;4999927;27;95156;-73
2022/01/19 08:28:44;;;;;;;59.55;49.97;;;18.10;52.90;;;;;;5001364;27;101647;-71
2022/01/19 08:31:09;;;;;;;59.42;49.88;;;18.10;53.40;;;;;;4991698;27;100630;-73
2022/01/19 08:33:35;;;;;;;61.08;50.40;;;18.10;53.00;;;;;;4998809;27;94870;-71
2022/01/19 08:36:01;;;;;;;60.00;50.00;;;18.20;52.70;;;;;;5005667;27;96242;-70
2022/01/19 08:38:26;;;;;;;59.88;50.15;;;18.10;52.20;;;;;;5008340;27;95624;-70
2022/01/19 08:40:52;;;;;;;58.85;50.33;;;18.20;52.20;;;;;;4989328;27;95285;-72
2022/01/19 08:43:18;;;;;;;56.83;49.72;;;18.10;52.10;;;;;;4989403;27;96174;-72
2022/01/19 08:45:44;;;;;;;56.83;49.75;;;18.10;52.80;;;;;;4994399;27;94969;-72
2022/01/19 08:48:10;;;;;;;60.17;50.42;;;18.10;52.70;;;;;;5008077;27;95075;-73
2022/01/19 08:50:36;;;;;;;59.92;49.85;;;18.20;52.60;;;;;;4994085;27;96916;-73
2022/01/19 08:53:02;;;;;;;56.55;50.00;;;18.20;52.70;;;;;;4984466;27;98915;-73
2022/01/19 08:55:28;;;;;;;59.42;50.13;;;18.20;52.80;;;;;;4990024;27;97144;-70
2022/01/19 08:57:54;;;;;;;57.28;50.10;;;18.20;52.50;;;;;;4999396;27;97822;-71
2022/01/19 09:00:20;;;;;;;59.80;50.17;;;18.20;52.10;;;;;;5001079;27;95557;-71
2022/01/19 09:02:46;;;;;;;59.92;50.10;;;18.20;51.60;;;;;;5007882;27;95252;-71
2022/01/19 09:05:12;;;;;;;56.38;49.75;;;18.20;51.20;;;;;;5000271;27;95411;-71
2022/01/19 09:07:38;;;;;;;57.03;49.72;;;18.20;51.10;;;;;;4988933;27;96622;-71
2022/01/19 09:10:07;;;;;;;58.67;50.10;;;18.20;51.20;;;;;;4990706;27;95736;-71
2022/01/19 09:12:34;;;;;;;57.00;49.80;;;18.20;51.30;;;;;;4993145;27;95966;-72
2022/01/19 09:15:00;;;;;;;57.95;49.92;;;18.20;51.40;;;;;;4999703;27;96939;-72
2022/01/19 09:17:25;;;;;;;56.88;49.85;;;18.20;51.00;;;;;;4998728;27;96061;-72
2022/01/19 09:19:51;;;;;;;58.58;50.35;;;18.30;50.90;;;;;;5013664;27;96748;-69
2022/01/19 09:22:17;;;;;;;59.20;50.08;;;18.30;50.80;;;;;;5007986;27;95447;-69
2022/01/19 09:24:43;;;;;;;57.45;50.42;;;18.30;50.70;;;;;;5007869;27;100950;-70
2022/01/19 09:27:09;;;;;;;57.67;49.75;;;18.30;50.60;;;;;;5007225;27;95681;-73
2022/01/19 09:29:42;;;;;;;59.10;50.25;;;18.30;50.80;;;;;;5008223;27;95270;-72
2022/01/19 09:32:10;;;;;;;58.22;50.38;;;18.30;51.70;;;;;;4990669;27;104895;-72
2022/01/19 09:34:36;;;;;;;58.58;50.28;;;18.40;50.80;;;;;;4969156;27;96723;-72
2022/01/19 09:37:02;;;;;;;60.40;50.17;;;18.30;50.90;;;;;;4991664;27;95861;-72
2022/01/19 09:39:28;;;;;;;61.28;50.38;;;18.30;51.00;;;;;;5007151;27;96147;-73
2022/01/19 09:41:55;;;;;;;59.35;50.30;;;18.30;51.30;;;;;;5003123;27;96577;-73
2022/01/19 09:44:23;;;;;;;59.58;50.47;;;18.30;51.60;;;;;;5005395;27;96051;-73
2022/01/19 09:46:53;;;;;;;57.78;50.17;;;18.30;51.40;;;;;;4991495;27;95281;-73
2022/01/19 09:49:22;;;;;;;57.40;50.05;;;18.40;51.30;;;;;;323484;28;10118905;-73
2022/01/19 09:51:53;;;;;;;58.50;50.20;;;18.30;51.20;;;;;;5014329;27;95604;-72
2022/01/19 09:54:22;;;;;;;60.30;50.50;;;18.40;51.00;;;;;;4995268;27;95517;-72
2022/01/19 09:56:49;;;;;;;59.80;50.65;;;18.40;51.00;;;;;;5007929;27;100961;-73
2022/01/19 09:59:16;;;;;;;59.78;50.30;;;18.30;50.80;;;;;;5010473;27;94466;-73
2022/01/19 10:01:50;;;;;;;59.53;50.97;;;18.30;50.40;;;;;;4979706;27;96870;-72
2022/01/19 10:04:24;;;;;;;59.15;50.45;;;18.30;50.70;;;;;;5001813;27;96919;-73
2022/01/19 10:07:08;;;;;;;60.50;50.75;;;18.30;50.90;;;;;;5002482;27;102188;-71
2022/01/19 10:09:45;;;;;;;59.75;50.45;;;18.30;50.90;;;;;;5003783;27;97446;-71
2022/01/19 10:17:29;;;;;;;57.70;50.75;;;18.30;51.60;;;;;;5007762;27;95348;-73
2022/01/19 10:19:55;;;;;;;60.53;50.92;;;18.30;51.50;;;;;;5006933;27;94713;-71
2022/01/19 10:22:25;;;;;;;57.70;50.53;;;18.30;51.60;;;;;;4999594;27;96999;-71
2022/01/19 10:25:03;;;;;;;60.60;50.78;;;18.30;51.50;;;;;;5004412;27;96201;-72
2022/01/19 10:27:40;;;;;;;60.47;51.33;;;18.30;51.70;;;;;;4994686;27;101584;-70
2022/01/19 10:30:06;;;;;;;58.95;51.35;;;18.30;51.70;;;;;;4981511;28;96807;-72
2022/01/19 10:33:02;;;;;;;58.75;51.30;;;18.40;51.50;;;;;;5010135;27;96904;-71
2022/01/19 10:35:32;;;;;;;58.88;50.90;;;18.40;51.20;;;;;;4982069;27;96393;-71
2022/01/19 10:38:14;;;;;;;60.58;51.03;;;18.30;50.70;;;;;;4983543;27;96262;-71
2022/01/19 10:40:41;;;;;;;;;;;18.30;50.50;;;;;;5015517;27;95975;-71
2022/01/19 10:43:29;;;;;;;60.50;50.75;;;18.30;50.40;;;;;;4997945;27;96284;-68
2022/01/19 10:45:57;;;;;;;57.70;50.72;;;18.30;50.40;;;;;;5003172;27;96961;-69
2022/01/19 10:48:35;;;;;;;63.08;50.75;;;18.30;50.50;;;;;;5004983;27;96334;-71
2022/01/19 10:51:14;;;;;;;59.95;50.83;;;18.40;50.80;;;;;;5006276;27;94420;-72
2022/01/19 10:53:45;;;;;;;60.33;50.72;;;18.50;50.80;;;;;;5012236;27;94777;-73
2022/01/19 10:56:28;;;;;;;59.75;50.58;;;18.60;50.80;;;;;;5000607;27;95675;-71
2022/01/19 10:59:03;;;;;;;60.63;50.67;;;18.70;50.80;;;;;;5004044;27;96977;-71
2022/01/19 11:01:37;;;;;;;58.05;50.45;;;18.80;50.70;;;;;;5009105;27;95268;-72
2022/01/19 11:04:30;;;;;;;58.88;51.17;;;18.90;50.70;;;;;;5005759;27;96703;-72
2022/01/19 11:07:05;;;;;;;65.00;51.15;;;18.90;50.20;;;;;;5008738;27;98081;-72
2022/01/19 11:09:34;;;;;;;60.05;50.97;;;19.00;49.90;;;;;;4993750;27;95757;-72
2022/01/19 11:12:05;;;;;;;60.13;50.97;;;19.00;50.10;;;;;;5009894;27;95247;-72
2022/01/19 11:14:32;;;;;;;65.70;51.65;;;19.10;50.20;;;;;;5001391;27;99195;-72
2022/01/19 11:16:58;;;;;;;58.67;50.97;;;19.10;49.90;;;;;;5003629;27;95985;-73
2022/01/19 11:19:24;;;;;;;61.22;51.45;;;19.20;50.20;;;;;;4984214;27;96123;-72
2022/01/19 11:22:17;;;;;;;59.92;50.90;;;19.20;50.10;;;;;;4972692;27;100971;-71
2022/01/19 11:24:50;;;;;;;59.63;51.05;;;19.20;50.10;;;;;;4988265;27;96881;-70
2022/01/19 11:27:17;;;;;;;62.67;51.03;;;19.20;50.00;;;;;;5005121;27;96952;-70
2022/01/19 11:29:43;;;;;;;59.95;51.25;;;19.20;50.20;;;;;;4992395;27;96840;-70
2022/01/19 11:32:15;;;;;;;61.13;51.38;;;19.20;50.20;;;;;;4996835;27;96170;-73
2022/01/19 11:34:48;;;;;;;58.40;50.72;;;19.30;50.20;;;;;;4982587;27;96107;-73
2022/01/19 11:37:33;;;;;;;59.42;51.03;;;19.20;50.40;;;;;;4987350;27;96068;-73
2022/01/19 11:40:12;;;;;;;63.20;51.53;;;19.30;50.70;;;;;;4989261;27;96771;-74
2022/01/19 11:42:39;;;;;;;59.10;50.55;;;19.20;50.80;;;;;;4981551;27;95555;-74
2022/01/19 11:45:09;;;;;;;60.42;51.55;;;19.20;50.70;;;;;;4972124;27;97409;-72
2022/01/19 11:47:36;;;;;;;61.42;51.70;;;19.30;50.90;;;;;;4993144;27;97247;-73
2022/01/19 11:50:18;;;;;;;64.70;51.63;;;19.30;50.80;;;;;;5001709;27;97619;-72
2022/01/19 11:52:44;;;;;;;60.83;51.58;;;19.30;50.50;;;;;;5008112;27;96453;-73
2022/01/19 11:55:12;;;;;;;59.63;51.10;;;19.30;50.40;;;;;;4986492;27;96185;-73
2022/01/19 11:57:40;;;;;;;59.60;51.13;;;19.30;50.40;;;;;;4976509;27;95323;-74
2022/01/19 12:00:14;;;;;;;60.67;51.33;;;19.30;50.40;;;;;;4971059;27;95217;-73
2022/01/19 12:03:31;;;;;;;52.92;45.92;;;19.20;50.60;;;;;;1939299;28;10108985;-73
2022/01/19 12:05:58;;;;;;;59.05;51.00;;;19.30;50.50;;;;;;3933904;27;10085999;-74
2022/01/19 12:08:30;;;;;;;60.83;51.22;;;19.20;50.30;;;;;;4974844;27;95565;-74
2022/01/19 12:11:12;;;;;;;58.40;50.38;;;19.20;50.70;;;;;;4967188;27;95544;-72
2022/01/19 12:19:07;;;;;;;61.72;51.85;;;19.10;50.40;;;;;;4976895;27;95993;-72
2022/01/19 12:22:20;;;;;;;62.15;51.97;;;19.10;50.30;;;;;;4977674;27;95564;-72
2022/01/19 12:25:00;;;;;;;59.78;51.75;;;19.00;50.40;;;;;;4912053;28;95675;-72
2022/01/19 12:27:29;;;;;;;58.80;51.17;;;19.00;50.40;;;;;;4926970;28;97031;-71
2022/01/19 12:30:09;;;;;;;61.28;51.70;;;18.90;50.50;;;;;;4971853;27;98595;-71
2022/01/19 12:32:39;;;;;;;58.30;51.22;;;18.90;50.20;;;;;;5006356;27;96696;-72
2022/01/19 12:35:10;;;;;;;58.67;51.22;;;18.90;50.50;;;;;;4989606;27;95170;-73
2022/01/19 12:37:40;;;;;;;60.03;51.53;;;18.90;50.50;;;;;;4984016;27;95459;-73
2022/01/19 12:40:18;;;;;;;60.78;50.90;;;18.80;51.10;;;;;;4971242;27;95990;-73
2022/01/19 12:42:46;;;;;;;59.55;51.20;;;18.80;51.00;;;;;;4976188;27;98223;-73
2022/01/19 12:45:19;;;;;;;59.33;51.00;;;18.70;51.20;;;;;;4981238;27;96348;-73
2022/01/19 12:47:49;;;;;;;60.05;51.47;;;18.80;51.60;;;;;;4976158;27;96925;-74
2022/01/19 12:50:18;;;;;;;58.92;51.03;;;18.70;51.40;;;;;;4980450;27;96157;-72
2022/01/19 12:52:43;;;;;;;59.60;50.90;;;18.80;51.90;;;;;;4979263;27;98629;-74
2022/01/19 12:55:22;;;;;;;59.28;51.20;;;18.80;52.10;;;;;;4978097;27;95429;-73
2022/01/19 12:57:49;;;;;;;60.10;51.35;;;18.70;52.20;;;;;;4984069;27;95847;-74
2022/01/19 13:00:20;;;;;;;59.95;51.33;;;18.80;51.90;;;;;;4979163;27;95405;-73
2022/01/19 13:02:46;;;;;;;61.47;51.38;;;18.70;52.30;;;;;;4968244;27;97880;-74
2022/01/19 13:05:16;;;;;;;58.70;50.67;;;18.70;52.40;;;;;;4975913;27;97666;-72
2022/01/19 13:07:45;;;;;;;60.25;51.72;;;18.80;52.80;;;;;;4955005;27;97219;-73
2022/01/19 13:12:57;;;;;;;59.40;51.45;;;18.80;52.60;;;;;;4968394;27;98976;-74
2022/01/19 13:15:42;;;;;;;63.60;51.38;;;18.80;52.80;;;;;;4984879;27;103587;-72
2022/01/19 13:18:09;;;;;;;59.60;51.15;;;18.80;53.10;;;;;;4981410;27;95631;-74
2022/01/19 13:20:35;;;;;;;62.13;51.53;;;18.70;52.70;;;;;;4974910;27;96159;-74
2022/01/19 13:23:04;;;;;;;61.00;51.53;;;18.70;52.70;;;;;;4947022;27;96899;-74
2022/01/19 13:25:31;;;;;;;60.25;51.25;;;18.70;52.60;;;;;;4977374;27;101046;-73
2022/01/19 13:28:00;;;;;;;61.08;51.63;;;18.70;53.10;;;;;;4983402;27;97473;-73
2022/01/19 13:30:28;;;;;;;61.25;51.17;;;18.70;53.10;;;;;;4991283;27;97452;-74
2022/01/19 13:32:55;;;;;;;59.78;51.63;;;18.70;52.80;;;;;;4979655;27;100326;-74
2022/01/19 13:35:24;;;;;;;60.25;51.38;;;18.70;52.90;;;;;;4981382;27;95935;-73
2022/01/19 13:37:55;;;;;;;62.28;51.78;;;18.70;53.20;;;;;;4976547;27;94893;-73
2022/01/19 13:40:30;;;;;;;;;;;18.80;53.00;;;;;;4984311;27;95918;-73
2022/01/19 13:42:59;;;;;;;61.95;51.22;;;18.70;53.20;;;;;;4989380;27;95727;-74
2022/01/19 13:45:37;;;;;;;60.05;51.35;;;18.70;53.30;;;;;;4982629;27;95697;-72
2022/01/19 13:50:43;;;;;;;58.88;51.10;;;18.80;53.10;;;;;;4976092;27;95325;-73
2022/01/19 13:53:09;;;;;;;59.15;50.88;;;18.80;53.90;;;;;;4972411;27;101418;-73
2022/01/19 13:55:35;;;;;;;60.45;51.28;;;18.80;53.50;;;;;;4978011;27;100719;-72
2022/01/19 13:58:13;;;;;;;62.65;51.25;;;18.70;54.30;;;;;;4986405;27;97203;-73
2022/01/19 14:00:57;;;;;;;63.25;51.92;;;18.70;53.70;;;;;;4989917;27;97121;-74
2022/01/19 14:03:25;;;;;;;60.97;51.67;;;18.70;53.70;;;;;;4983640;27;95874;-73
2022/01/19 14:05:53;;;;;;;61.17;51.70;;;18.70;54.20;;;;;;4966288;27;96296;-73
2022/01/19 14:08:32;;;;;;;60.63;51.53;;;18.70;54.20;;;;;;4979982;27;96280;-73
2022/01/19 14:10:59;;;;;;;59.67;51.17;;;18.70;54.30;;;;;;4981706;27;95222;-73
2022/01/19 14:13:29;;;;;;;61.88;51.60;;;18.70;54.20;;;;;;4964717;27;95183;-73
2022/01/19 14:16:15;;;;;;;62.72;51.67;;;18.70;54.00;;;;;;4965105;27;95993;-72
2022/01/19 14:18:40;;;;;;;61.03;51.13;;;18.70;53.80;;;;;;4976235;27;95815;-73
2022/01/19 14:21:08;;;;;;;61.08;51.50;;;18.70;54.20;;;;;;4967914;27;99617;-73